createdAt,value
2019-05-20T00:00:18.276Z,100174.39
2019-05-20T00:02:46.945Z,100180.76
2019-05-20T00:05:15.707Z,100177.45
2019-05-20T00:07:44.408Z,100183.48
2019-05-20T00:10:13.706Z,100183.66
2019-05-20T00:12:42.415Z,100170.14
2019-05-20T00:15:11.311Z,100171.73
2019-05-20T00:17:40.153Z,100168.08
2019-05-20T00:20:09.267Z,100172.83
2019-05-20T00:22:38.045Z,100174.14
2019-05-20T00:25:07.948Z,100178.55
2019-05-20T00:27:36.686Z,100170.57
2019-05-20T00:30:07.958Z,100168.63
2019-05-20T00:32:41.069Z,100167.94
2019-05-20T00:35:07.756Z,100172.11
2019-05-20T00:37:36.566Z,100168.52
2019-05-20T00:40:07.820Z,100172.97
2019-05-20T00:42:36.621Z,100170.84
2019-05-20T00:45:05.911Z,100167.94
2019-05-20T00:47:34.721Z,100164.80
2019-05-20T00:50:03.661Z,100162.76
2019-05-20T00:52:32.401Z,100156.17
2019-05-20T00:55:01.082Z,100148.49
2019-05-20T00:57:29.811Z,100154.79
2019-05-20T00:59:58.595Z,100157.21
2019-05-20T01:02:27.260Z,100163.67
2019-05-20T01:04:57.447Z,100160.45
2019-05-20T01:07:26.196Z,100160.61
2019-05-20T01:09:54.939Z,100165.02
2019-05-20T01:12:23.717Z,100166.55
2019-05-20T01:14:52.479Z,100160.61
2019-05-20T01:17:21.157Z,100160.38
2019-05-20T01:19:49.964Z,100176.46
2019-05-20T01:22:18.661Z,100176.98
2019-05-20T01:24:47.414Z,100173.11
2019-05-20T01:27:16.242Z,100182.64
2019-05-20T01:29:44.993Z,100176.53
2019-05-20T01:32:13.910Z,100174.83
2019-05-20T01:34:42.694Z,100177.37
2019-05-20T01:37:11.451Z,100181.84
2019-05-20T01:39:40.169Z,100187.99
2019-05-20T01:42:08.880Z,100189.97
2019-05-20T01:44:38.990Z,100189.61
2019-05-20T01:47:07.651Z,100191.97
2019-05-20T01:49:36.535Z,100188.58
2019-05-20T01:52:05.947Z,100193.53
2019-05-20T01:54:34.625Z,100189.94
2019-05-20T01:57:03.351Z,100186.52
2019-05-20T01:59:32.032Z,100187.34
2019-05-20T02:02:00.704Z,100179.07
2019-05-20T02:04:29.422Z,100182.66
2019-05-20T02:06:58.104Z,100186.80
2019-05-20T02:09:26.840Z,100183.22
2019-05-20T02:11:55.706Z,100186.58
2019-05-20T02:14:26.016Z,100178.20
2019-05-20T02:16:54.754Z,100183.03
2019-05-20T02:19:23.462Z,100180.34
2019-05-20T02:21:52.161Z,100175.06
2019-05-20T02:24:20.902Z,100177.58
2019-05-20T02:26:49.730Z,100177.06
2019-05-20T02:29:18.468Z,100186.45
2019-05-20T02:31:47.217Z,100180.47
2019-05-20T02:34:15.938Z,100181.33
2019-05-20T02:36:44.597Z,100178.26
2019-05-20T02:39:13.284Z,100181.54
2019-05-20T02:41:42.069Z,100178.11
2019-05-20T02:44:10.855Z,100176.39
2019-05-20T02:46:39.568Z,100172.59
2019-05-20T02:49:08.285Z,100174.47
2019-05-20T02:51:37.040Z,100178.38
2019-05-20T02:54:05.766Z,100177.02
2019-05-20T02:56:34.469Z,100171.09
2019-05-20T02:59:03.253Z,100168.23
2019-05-20T03:01:32.006Z,100165.01
2019-05-20T03:04:11.793Z,100168.53
2019-05-20T03:06:31.122Z,100171.15
2019-05-20T03:08:59.807Z,100162.94
2019-05-20T03:11:28.516Z,100161.88
2019-05-20T03:13:57.213Z,100165.48
2019-05-20T03:16:25.930Z,100172.34
2019-05-20T03:18:54.615Z,100172.86
2019-05-20T03:21:23.348Z,100168.98
2019-05-20T03:23:52.020Z,100167.28
2019-05-20T03:26:20.805Z,100167.13
2019-05-20T03:28:50.989Z,100168.33
2019-05-20T03:31:19.766Z,100169.16
2019-05-20T03:33:48.464Z,100172.89
2019-05-20T03:36:17.421Z,100178.34
2019-05-20T03:38:46.119Z,100178.69
2019-05-20T03:41:14.792Z,100176.13
2019-05-20T03:43:45.555Z,100174.19
2019-05-20T03:46:15.792Z,100173.88
2019-05-20T03:48:44.466Z,100167.62
2019-05-20T03:51:13.196Z,100167.46
2019-05-20T03:53:41.955Z,100169.69
2019-05-20T03:56:10.699Z,100173.08
2019-05-20T03:58:39.416Z,100172.77
2019-05-20T04:01:08.147Z,100163.56
2019-05-20T04:03:36.920Z,100169.34
2019-05-20T04:06:05.706Z,100171.03
2019-05-20T04:08:34.413Z,100172.36
2019-05-20T04:11:03.087Z,100172.73
2019-05-20T04:13:34.692Z,100172.36
2019-05-20T04:16:02.338Z,100170.66
2019-05-20T04:18:31.087Z,100170.30
2019-05-20T04:20:59.766Z,100161.94
2019-05-20T04:23:28.488Z,100154.30
2019-05-20T04:25:57.170Z,100152.59
2019-05-20T04:28:25.873Z,100161.83
2019-05-20T04:30:54.546Z,100155.19
2019-05-20T04:33:24.689Z,100154.67
2019-05-20T04:35:53.450Z,100152.08
2019-05-20T04:38:22.247Z,100154.57
2019-05-20T04:40:50.892Z,100155.63
2019-05-20T04:43:19.619Z,100155.10
2019-05-20T04:45:48.283Z,100149.41
2019-05-20T04:48:17.003Z,100161.64
2019-05-20T04:50:45.806Z,100165.39
2019-05-20T04:53:15.562Z,100159.08
2019-05-20T04:55:44.238Z,100165.34
2019-05-20T04:58:12.973Z,100158.87
2019-05-20T05:00:53.400Z,100153.49
2019-05-20T05:03:22.650Z,100157.46
2019-05-20T05:05:51.857Z,100159.67
2019-05-20T05:08:21.546Z,100165.61
2019-05-20T05:10:50.692Z,100175.36
2019-05-20T05:13:19.844Z,100174.09
2019-05-20T05:15:48.615Z,100175.42
2019-05-20T05:18:17.462Z,100176.07
2019-05-20T05:20:46.227Z,100176.09
2019-05-20T05:23:15.016Z,100182.69
2019-05-20T05:25:43.713Z,100182.70
2019-05-20T05:28:13.932Z,100182.17
2019-05-20T05:30:43.711Z,100180.19
2019-05-20T05:33:12.489Z,100181.50
2019-05-20T05:35:52.927Z,100177.23
2019-05-20T05:38:11.642Z,100175.42
2019-05-20T05:40:40.454Z,100165.69
2019-05-20T05:43:09.207Z,100173.16
2019-05-20T05:45:37.916Z,100166.63
2019-05-20T05:48:06.600Z,100178.38
2019-05-20T05:50:35.324Z,100178.42
2019-05-20T05:53:05.401Z,100184.37
2019-05-20T05:55:34.193Z,100172.66
2019-05-20T05:58:02.924Z,100183.69
2019-05-20T06:00:32.074Z,100185.42
2019-05-20T06:03:00.861Z,100193.59
2019-05-20T06:05:31.754Z,100194.58
2019-05-20T06:07:59.929Z,100193.52
2019-05-20T06:10:28.671Z,100190.06
2019-05-20T06:12:58.006Z,100194.97
2019-05-20T06:15:26.744Z,100196.30
2019-05-20T06:17:55.539Z,100196.09
2019-05-20T06:20:24.404Z,100203.00
2019-05-20T06:22:53.174Z,100203.94
2019-05-20T06:25:22.236Z,100206.53
2019-05-20T06:27:53.358Z,100199.08
2019-05-20T06:30:24.944Z,100195.52
2019-05-20T06:32:53.630Z,100198.02
2019-05-20T06:51:18.890Z,100193.37
2019-05-20T06:54:04.520Z,100190.61
2019-05-20T07:16:07.432Z,100204.70
2019-05-20T07:34:30.658Z,100217.55
2019-05-20T07:37:03.811Z,100215.92
2019-05-20T07:39:29.860Z,100212.54
2019-05-20T07:41:58.554Z,100221.06
2019-05-20T07:44:27.311Z,100227.31
2019-05-20T07:46:56.211Z,100222.58
2019-05-20T07:49:25.148Z,100231.92
2019-05-20T07:51:54.112Z,100226.87
2019-05-20T07:54:24.005Z,100236.30
2019-05-20T07:56:55.080Z,100232.03
2019-05-20T07:59:25.795Z,100224.13
2019-05-20T08:01:54.487Z,100224.13
2019-05-20T08:04:23.602Z,100228.69
2019-05-20T08:06:52.508Z,100228.69
2019-05-20T08:09:21.162Z,100225.54
2019-05-20T08:11:49.894Z,100215.41
2019-05-20T08:14:19.094Z,100222.33
2019-05-20T08:16:47.876Z,100225.08
2019-05-20T08:19:16.559Z,100225.31
2019-05-20T08:21:46.777Z,100226.38
2019-05-20T08:24:15.479Z,100231.37
2019-05-20T08:26:44.281Z,100229.84
2019-05-20T08:29:13.055Z,100233.17
2019-05-20T08:31:41.721Z,100238.54
2019-05-20T08:34:10.454Z,100235.24
2019-05-20T08:36:39.150Z,100238.73
2019-05-20T08:39:08.719Z,100241.44
2019-05-20T08:41:37.829Z,100240.00
2019-05-20T08:44:06.599Z,100243.30
2019-05-20T08:46:35.337Z,100244.58
2019-05-20T08:49:04.067Z,100237.38
2019-05-20T08:51:34.239Z,100241.31
2019-05-20T08:54:03.177Z,100248.11
2019-05-20T08:56:31.950Z,100240.70
2019-05-20T08:59:00.656Z,100243.38
2019-05-20T09:01:29.319Z,100233.87
2019-05-20T09:03:58.120Z,100228.22
2019-05-20T09:06:26.902Z,100241.64
2019-05-20T09:08:56.137Z,100237.66
2019-05-20T09:11:24.868Z,100243.83
2019-05-20T09:13:53.589Z,100240.36
2019-05-20T09:16:22.271Z,100237.23
2019-05-20T09:18:51.088Z,100239.10
2019-05-20T09:21:19.796Z,100233.43
2019-05-20T09:23:48.728Z,100241.80
2019-05-20T09:26:18.799Z,100240.53
2019-05-20T09:28:47.630Z,100244.03
2019-05-20T09:31:16.643Z,100251.39
2019-05-20T09:33:45.627Z,100254.48
2019-05-20T09:36:14.321Z,100250.04
2019-05-20T09:38:43.171Z,100253.53
2019-05-20T09:41:13.523Z,100255.67
2019-05-20T09:43:42.211Z,100257.33
2019-05-20T09:46:10.914Z,100253.20
2019-05-20T09:48:39.623Z,100255.00
2019-05-20T09:51:08.371Z,100255.13
2019-05-20T09:53:37.169Z,100260.73
2019-05-20T09:56:05.909Z,100254.67
2019-05-20T09:58:34.676Z,100254.37
2019-05-20T10:01:03.444Z,100257.07
2019-05-20T10:03:32.234Z,100265.06
2019-05-20T10:06:00.928Z,100263.44
2019-05-20T10:08:38.051Z,100264.17
2019-05-20T10:11:01.186Z,100255.13
2019-05-20T10:13:32.245Z,100246.97
2019-05-20T10:16:00.538Z,100246.50
2019-05-20T10:18:37.116Z,100246.36
2019-05-20T10:20:59.806Z,100253.44
2019-05-20T10:23:28.482Z,100251.43
2019-05-20T10:25:58.692Z,100251.36
2019-05-20T10:28:27.967Z,100252.33
2019-05-20T10:30:56.711Z,100249.59
2019-05-20T10:33:25.456Z,100251.41
2019-05-20T10:35:54.205Z,100253.63
2019-05-20T10:38:22.919Z,100252.69
2019-05-20T10:40:51.699Z,100258.16
2019-05-20T10:43:20.370Z,100262.90
2019-05-20T10:45:49.063Z,100263.81
2019-05-20T10:48:17.794Z,100258.59
2019-05-20T10:50:46.556Z,100259.78
2019-05-20T10:53:15.243Z,100257.97
2019-05-20T10:55:45.415Z,100257.61
2019-05-20T10:58:14.203Z,100261.24
2019-05-20T11:01:01.189Z,100261.53
2019-05-20T11:03:13.460Z,100261.17
2019-05-20T11:05:42.134Z,100259.94
2019-05-20T11:08:10.811Z,100248.39
2019-05-20T11:10:39.583Z,100251.03
2019-05-20T11:13:08.347Z,100244.18
2019-05-20T11:15:37.135Z,100246.38
2019-05-20T11:18:05.862Z,100251.16
2019-05-20T11:20:34.631Z,100246.52
2019-05-20T11:23:03.324Z,100246.31
2019-05-20T11:25:32.104Z,100246.45
2019-05-20T11:28:01.015Z,100259.77
2019-05-20T11:30:30.066Z,100263.42
2019-05-20T11:32:58.809Z,100256.72
2019-05-20T11:35:27.576Z,100260.94
2019-05-20T11:37:56.325Z,100259.83
2019-05-20T11:40:25.098Z,100252.38
2019-05-20T11:42:53.973Z,100258.83
2019-05-20T11:45:22.793Z,100250.11
2019-05-20T11:47:51.557Z,100256.44
2019-05-20T11:50:20.438Z,100256.44
2019-05-20T11:52:49.246Z,100252.31
2019-05-20T11:55:18.094Z,100248.09
2019-05-20T11:57:46.957Z,100248.47
2019-05-20T12:00:16.193Z,100249.69
2019-05-20T12:02:44.895Z,100249.81
2019-05-20T12:05:14.853Z,100255.34
2019-05-20T12:07:43.927Z,100257.30
2019-05-20T12:10:13.191Z,100262.41
2019-05-20T12:12:41.893Z,100262.14
2019-05-20T12:15:11.251Z,100270.43
2019-05-20T12:17:39.986Z,100265.68
2019-05-20T12:20:11.836Z,100269.92
2019-05-20T12:22:39.843Z,100264.52
2019-05-20T12:25:09.455Z,100261.86
2019-05-20T12:30:06.601Z,100261.04
2019-05-20T12:32:35.286Z,100253.75
2019-05-20T12:35:05.856Z,100252.16
2019-05-20T12:37:34.537Z,100249.17
2019-05-20T12:40:07.445Z,100250.55
2019-05-20T12:42:34.205Z,100247.45
2019-05-20T12:45:03.035Z,100245.73
2019-05-20T12:47:31.724Z,100240.27
2019-05-20T12:50:03.541Z,100232.68
2019-05-20T12:52:32.206Z,100240.50
2019-05-20T12:55:07.951Z,100229.53
2019-05-20T12:57:31.509Z,100234.66
2019-05-20T13:00:00.224Z,100232.57
2019-05-20T13:02:28.898Z,100229.37
2019-05-20T13:05:00.641Z,100228.80
2019-05-20T13:07:29.376Z,100231.25
2019-05-20T13:10:02.560Z,100228.56
2019-05-20T13:12:28.669Z,100224.23
2019-05-20T13:14:57.455Z,100229.58
2019-05-20T13:17:26.325Z,100220.31
2019-05-20T13:19:55.124Z,100224.47
2019-05-20T13:22:23.823Z,100224.43
2019-05-20T13:24:52.605Z,100221.25
2019-05-20T13:27:21.382Z,100218.48
2019-05-20T13:29:50.123Z,100210.22
2019-05-20T13:32:18.912Z,100214.81
2019-05-20T13:34:47.683Z,100205.13
2019-05-20T13:37:16.460Z,100210.62
2019-05-20T13:39:45.206Z,100209.84
2019-05-20T13:42:13.980Z,100204.32
2019-05-20T13:44:43.018Z,100203.83
2019-05-20T13:47:11.803Z,100207.41
2019-05-20T13:49:40.542Z,100203.09
2019-05-20T13:52:09.327Z,100201.44
2019-05-20T13:54:37.994Z,100199.28
2019-05-20T13:57:06.805Z,100194.55
2019-05-20T13:59:35.523Z,100198.70
2019-05-20T14:02:09.290Z,100191.11
2019-05-20T14:04:39.538Z,100186.47
2019-05-20T14:07:08.275Z,100180.14
2019-05-20T14:09:37.028Z,100171.97
2019-05-20T14:12:05.740Z,100163.65
2019-05-20T14:14:34.397Z,100168.56
2019-05-20T14:17:03.280Z,100159.08
2019-05-20T14:19:31.954Z,100153.69
2019-05-20T14:22:00.726Z,100150.58
2019-05-20T14:24:29.487Z,100147.70
2019-05-20T14:26:58.264Z,100153.87
2019-05-20T14:29:27.001Z,100141.97
2019-05-20T14:31:55.775Z,100133.28
2019-05-20T14:34:24.516Z,100128.98
2019-05-20T14:36:53.312Z,100132.08
2019-05-20T14:39:22.065Z,100121.22
2019-05-20T14:41:50.789Z,100126.34
2019-05-20T14:44:19.529Z,100129.64
2019-05-20T14:46:48.304Z,100124.27
2019-05-20T14:49:17.141Z,100125.98
2019-05-20T14:51:45.923Z,100126.22
2019-05-20T14:54:14.696Z,100128.33
2019-05-20T14:56:43.453Z,100133.62
2019-05-20T14:59:12.187Z,100133.43
2019-05-20T15:01:40.960Z,100141.92
2019-05-20T15:04:11.091Z,100145.25
2019-05-20T15:06:39.799Z,100148.81
2019-05-20T15:09:08.541Z,100143.20
2019-05-20T15:11:38.719Z,100146.16
2019-05-20T15:14:07.700Z,100143.14
2019-05-20T15:16:36.428Z,100135.00
2019-05-20T15:19:05.225Z,100139.98
2019-05-20T15:21:33.988Z,100136.66
2019-05-20T15:24:02.755Z,100134.92
2019-05-20T15:26:31.570Z,100130.09
2019-05-20T15:29:00.325Z,100127.59
2019-05-20T15:31:28.985Z,100129.60
2019-05-20T15:33:57.750Z,100118.17
2019-05-20T15:36:26.415Z,100121.14
2019-05-20T15:38:55.283Z,100112.59
2019-05-20T15:41:25.407Z,100111.93
2019-05-20T15:43:54.079Z,100106.80
2019-05-20T15:46:22.883Z,100097.26
2019-05-20T15:48:51.587Z,100092.22
2019-05-20T15:51:20.274Z,100095.36
2019-05-20T15:53:48.954Z,100090.67
2019-05-20T15:56:17.725Z,100099.38
2019-05-20T15:58:46.431Z,100090.81
2019-05-20T16:01:16.650Z,100094.32
2019-05-20T16:03:45.428Z,100089.66
2019-05-20T16:06:14.174Z,100097.77
2019-05-20T16:08:42.933Z,100098.95
2019-05-20T16:11:11.708Z,100106.64
2019-05-20T16:13:40.432Z,100111.41
2019-05-20T16:16:12.807Z,100109.40
2019-05-20T16:18:39.595Z,100113.14
2019-05-20T16:21:11.609Z,100112.21
2019-05-20T16:23:40.385Z,100112.73
2019-05-20T16:26:09.066Z,100102.20
2019-05-20T16:28:37.863Z,100104.16
2019-05-20T16:31:06.553Z,100100.98
2019-05-20T16:33:36.788Z,100107.49
2019-05-20T16:36:05.557Z,100115.51
2019-05-20T16:38:34.351Z,100111.88
2019-05-20T16:41:03.085Z,100106.84
2019-05-20T16:43:31.791Z,100108.31
2019-05-20T16:46:00.560Z,100107.61
2019-05-20T16:48:29.373Z,100102.23
2019-05-20T16:50:58.059Z,100113.27
2019-05-20T16:53:26.783Z,100113.12
2019-05-20T16:55:55.533Z,100107.72
2019-05-20T16:58:24.248Z,100104.08
2019-05-20T17:00:52.936Z,100107.55
2019-05-20T17:03:21.703Z,100107.34
2019-05-20T17:05:50.397Z,100115.16
2019-05-20T17:08:19.104Z,100116.86
2019-05-20T17:10:52.955Z,100115.30
2019-05-20T17:13:21.656Z,100116.02
2019-05-20T17:15:50.339Z,100120.22
2019-05-20T17:18:23.663Z,100128.44
2019-05-20T17:20:52.323Z,100118.22
2019-05-20T17:23:21.023Z,100130.48
2019-05-20T17:25:50.812Z,100126.95
2019-05-20T17:28:19.777Z,100126.03
2019-05-20T17:30:48.585Z,100132.45
2019-05-20T17:33:17.294Z,100132.45
2019-05-20T17:35:46.168Z,100126.66
2019-05-20T17:38:15.873Z,100128.48
2019-05-20T17:40:46.183Z,100127.22
2019-05-20T17:43:14.989Z,100123.69
2019-05-20T17:45:43.697Z,100124.42
2019-05-20T17:48:12.420Z,100122.64
2019-05-20T17:50:41.111Z,100123.31
2019-05-20T17:53:09.846Z,100123.93
2019-05-20T17:55:38.590Z,100121.23
2019-05-20T17:58:07.305Z,100117.39
2019-05-20T18:00:36.065Z,100120.31
2019-05-20T18:03:04.755Z,100121.81
2019-05-20T18:05:33.638Z,100118.00
2019-05-20T18:08:02.398Z,100119.42
2019-05-20T18:10:33.024Z,100120.37
2019-05-20T18:13:01.708Z,100117.69
2019-05-20T18:15:32.889Z,100121.67
2019-05-20T18:18:03.699Z,100118.77
2019-05-20T18:20:32.885Z,100122.83
2019-05-20T18:23:04.546Z,100121.23
2019-05-20T18:25:33.385Z,100132.11
2019-05-20T18:28:05.270Z,100132.06
2019-05-20T18:30:34.315Z,100138.47
2019-05-20T18:33:03.118Z,100144.46
2019-05-20T18:35:31.895Z,100143.60
2019-05-20T18:38:01.053Z,100143.81
2019-05-20T18:40:31.266Z,100158.30
2019-05-20T18:43:00.475Z,100164.39
2019-05-20T18:45:29.233Z,100163.53
2019-05-20T18:47:58.261Z,100160.55
2019-05-20T18:50:27.460Z,100170.55
2019-05-20T18:52:56.249Z,100172.22
2019-05-20T18:55:25.463Z,100169.05
2019-05-20T18:57:54.453Z,100163.55
2019-05-20T19:00:23.699Z,100161.88
2019-05-20T19:02:52.943Z,100164.01
2019-05-20T19:05:22.056Z,100163.59
2019-05-20T19:07:51.105Z,100160.44
2019-05-20T19:10:20.089Z,100163.72
2019-05-20T19:12:48.869Z,100164.92
2019-05-20T19:15:18.180Z,100168.20
2019-05-20T19:17:47.124Z,100161.98
2019-05-20T19:20:18.991Z,100161.46
2019-05-20T19:22:48.204Z,100164.23
2019-05-20T19:25:18.627Z,100168.12
2019-05-20T19:27:47.569Z,100165.48
2019-05-20T19:30:17.644Z,100161.69
2019-05-20T19:32:46.356Z,100159.46
2019-05-20T19:35:15.685Z,100148.91
2019-05-20T19:37:44.410Z,100156.52
2019-05-20T19:40:13.830Z,100145.95
2019-05-20T19:42:42.622Z,100141.50
2019-05-20T19:45:12.225Z,100146.69
2019-05-20T19:47:41.123Z,100149.00
2019-05-20T19:50:12.067Z,100141.72
2019-05-20T19:52:41.055Z,100137.80
2019-05-20T19:55:09.909Z,100145.53
2019-05-20T19:57:38.597Z,100145.28
2019-05-20T20:00:10.294Z,100146.35
2019-05-20T20:02:40.712Z,100163.50
2019-05-20T20:05:10.931Z,100165.48
2019-05-20T20:07:40.216Z,100176.77
2019-05-20T20:10:09.549Z,100170.77
2019-05-20T20:12:38.497Z,100160.42
2019-05-20T20:15:07.712Z,100152.52
2019-05-20T20:17:36.848Z,100145.66
2019-05-20T20:20:10.863Z,100143.78
2019-05-20T20:22:39.566Z,100135.95
2019-05-20T20:25:08.542Z,100130.80
2019-05-20T20:27:37.376Z,100131.19
2019-05-20T20:30:07.366Z,100122.86
2019-05-20T20:32:38.428Z,100127.72
2019-05-20T20:35:08.788Z,100125.30
2019-05-20T20:37:40.468Z,100125.81
2019-05-20T20:40:09.359Z,100126.75
2019-05-20T20:42:38.143Z,100120.93
2019-05-20T20:45:07.061Z,100126.32
2019-05-20T20:47:41.874Z,100125.98
2019-05-20T20:50:07.913Z,100133.28
2019-05-20T20:52:36.778Z,100140.34
2019-05-20T20:55:07.161Z,100140.34
2019-05-20T20:57:36.123Z,100142.55
2019-05-20T21:00:07.893Z,100149.71
2019-05-20T21:02:36.643Z,100152.45
2019-05-20T21:05:06.103Z,100156.36
2019-05-20T21:07:34.878Z,100159.98
2019-05-20T21:10:04.523Z,100165.72
2019-05-20T21:12:33.281Z,100163.66
2019-05-20T21:15:02.318Z,100164.67
2019-05-20T21:17:31.133Z,100157.31
2019-05-20T21:19:59.879Z,100159.44
2019-05-20T21:22:28.596Z,100155.67
2019-05-20T21:24:57.282Z,100143.69
2019-05-20T21:27:25.995Z,100133.80
2019-05-20T21:29:54.669Z,100134.53
2019-05-20T21:32:23.419Z,100129.68
2019-05-20T21:34:52.134Z,100131.77
2019-05-20T21:37:20.841Z,100131.04
2019-05-20T21:39:49.529Z,100125.42
2019-05-20T21:42:18.240Z,100122.67
2019-05-20T21:44:46.977Z,100127.51
2019-05-20T21:47:15.681Z,100122.75
2019-05-20T21:49:44.419Z,100122.31
2019-05-20T21:52:13.212Z,100121.03
2019-05-20T21:54:43.180Z,100115.37
2019-05-20T21:57:14.233Z,100119.77
2019-05-20T21:59:43.031Z,100111.54
2019-05-20T22:02:11.919Z,100112.07
2019-05-20T22:04:40.653Z,100106.06
2019-05-20T22:07:09.420Z,100102.34
2019-05-20T22:09:38.173Z,100098.20
2019-05-20T22:12:06.987Z,100092.59
2019-05-20T22:14:35.690Z,100092.67
2019-05-20T22:17:04.490Z,100092.67
2019-05-20T22:19:33.186Z,100096.20
2019-05-20T22:22:12.553Z,100095.95
2019-05-20T22:24:41.311Z,100088.56
2019-05-20T22:27:10.067Z,100088.45
2019-05-20T22:29:38.818Z,100074.86
2019-05-20T22:32:07.617Z,100074.86
2019-05-20T22:34:36.284Z,100076.48
2019-05-20T22:37:04.962Z,100077.52
2019-05-20T22:39:33.694Z,100077.12
2019-05-20T22:42:04.226Z,100077.52
2019-05-20T22:44:32.991Z,100076.09
2019-05-20T22:47:01.705Z,100076.09
2019-05-20T22:49:30.450Z,100077.39
2019-05-20T22:51:59.120Z,100069.61
2019-05-20T22:54:27.879Z,100064.15
2019-05-20T22:56:56.568Z,100063.95
2019-05-20T22:59:25.369Z,100067.37
2019-05-20T23:01:54.056Z,100064.34
2019-05-20T23:04:22.743Z,100064.34
2019-05-20T23:06:51.536Z,100073.83
2019-05-20T23:09:20.274Z,100070.36
2019-05-20T23:11:49.058Z,100076.77
2019-05-20T23:14:17.828Z,100072.13
2019-05-20T23:16:46.498Z,100071.77
2019-05-20T23:19:15.176Z,100073.78
2019-05-20T23:21:43.895Z,100060.68
2019-05-20T23:24:12.584Z,100060.68
2019-05-20T23:26:41.342Z,100056.12
2019-05-20T23:29:10.159Z,100039.16
2019-05-20T23:31:38.801Z,100041.48
2019-05-20T23:34:12.932Z,100045.14
2019-05-20T23:36:37.917Z,100053.92
2019-05-20T23:39:07.690Z,100045.88
2019-05-20T23:41:36.485Z,100053.67
2019-05-20T23:44:05.252Z,100053.31
2019-05-20T23:46:33.901Z,100057.63
2019-05-20T23:49:02.577Z,100063.70
2019-05-20T23:51:31.291Z,100063.98
2019-05-20T23:54:00.030Z,100067.57
2019-05-20T23:56:30.110Z,100078.42
2019-05-20T23:58:58.826Z,100074.64
